| time (UTC) | temp C | wind direction | speed KPH | gust KPH | rain 1hr cm | rain 24hr cm | rain mn cm | humidity % | barometer mb |
| 20260508190049 | 29 | 319 | 1.6 | 4.8 | 0.00 | 0.00 | 0.00 | 19 | 1006.6 |
| 20260508184558 | 29 | 86 | 3.2 | 8.0 | 0.00 | 0.00 | 0.00 | 18 | 1006.9 |
| 20260508183053 | 28 | 257 | 0.0 | 8.0 | 0.00 | 0.00 | 0.00 | 19 | 1007.0 |
| 20260508181543 | 28 | 258 | 1.6 | 8.0 | 0.00 | 0.00 | 0.00 | 21 | 1007.3 |
| 20260508180037 | 27 | 334 | 0.0 | 4.8 | 0.00 | 0.00 | 0.00 | 22 | 1007.6 |
| 20260508174556 | 27 | 320 | 0.0 | 4.8 | 0.00 | 0.00 | 0.00 | 21 | 1007.9 |
| 20260508173035 | 26 | 266 | 1.6 | 8.0 | 0.00 | 0.00 | 0.00 | 23 | 1008.0 |
| 20260508171534 | 26 | 342 | 0.0 | 8.0 | 0.00 | 0.00 | 0.00 | 23 | 1008.0 |
| 20260508170034 | 25 | 326 | 1.6 | 6.4 | 0.00 | 0.00 | 0.00 | 23 | 1008.2 |
| 20260508164528 | 25 | 127 | 1.6 | 4.8 | 0.00 | 0.00 | 0.00 | 23 | 1008.3 |
| 20260508163039 | 24 | 110 | 1.6 | 4.8 | 0.00 | 0.00 | 0.00 | 24 | 1008.4 |
| 20260508161524 | 24 | 264 | 1.6 | 4.8 | 0.00 | 0.00 | 0.00 | 26 | 1008.5 |
| 20260508160025 | 24 | 255 | 1.6 | 4.8 | 0.00 | 0.00 | 0.00 | 24 | 1008.5 |
| 20260508154520 | 23 | 113 | 0.0 | 6.4 | 0.00 | 0.00 | 0.00 | 25 | 1008.4 |
| 20260508153025 | 23 | 97 | 0.0 | 4.8 | 0.00 | 0.00 | 0.00 | 26 | 1008.4 |
| 20260508151523 | 22 | 227 | 1.6 | 3.2 | 0.00 | 0.00 | 0.00 | 27 | 1008.5 |
| 20260508150014 | 22 | 253 | 0.0 | 4.8 | 0.00 | 0.00 | 0.00 | 27 | 1008.6 |
| 20260508144512 | 23 | 108 | 0.0 | 4.8 | 0.00 | 0.00 | 0.00 | 27 | 1008.6 |
| 20260508143008 | 21 | 329 | 0.0 | 0.0 | 0.00 | 0.00 | 0.00 | 30 | 1008.5 |
| 20260508141505 | 20 | 328 | 0.0 | 1.6 | 0.00 | 0.00 | 0.00 | 33 | 1008.6 |
| 20260508140002 | 19 | 328 | 0.0 | 0.0 | 0.00 | 0.00 | 0.00 | 36 | 1008.6 |
| 20260508134607 | 18 | 328 | 0.0 | 0.0 | 0.00 | 0.00 | 0.00 | 39 | 1008.6 |
| 20260508133105 | 15 | 328 | 0.0 | 0.0 | 0.00 | 0.00 | 0.00 | 46 | 1008.3 |
| 20260508131559 | 14 | 328 | 0.0 | 0.0 | 0.00 | 0.00 | 0.00 | 53 | 1008.2 |
| 20260508130106 | 15 | 328 | 0.0 | 0.0 | 0.00 | 0.00 | 0.00 | 54 | 1008.1 |
| 20260508124551 | 15 | 328 | 0.0 | 0.0 | 0.00 | 0.00 | 0.00 | 44 | 1007.7 |
| 20260508123049 | 15 | 328 | 0.0 | 0.0 | 0.00 | 0.00 | 0.00 | 49 | 1007.5 |
| 20260508121550 | 15 | 328 | 0.0 | 0.0 | 0.00 | 0.00 | 0.00 | 45 | 1007.4 |
| 20260508120047 | 15 | 328 | 0.0 | 0.0 | 0.00 | 0.00 | 0.00 | 46 | 1007.3 |
| 20260508114544 | 16 | 328 | 0.0 | 0.0 | 0.00 | 0.00 | 0.00 | 43 | 1007.2 |
| 20260508113051 | 16 | 328 | 0.0 | 0.0 | 0.00 | 0.00 | 0.00 | 41 | 1007.1 |
| 20260508111542 | 17 | 328 | 0.0 | 0.0 | 0.00 | 0.00 | 0.00 | 39 | 1007.0 |
| 20260508110054 | 18 | 328 | 0.0 | 4.8 | 0.00 | 0.00 | 0.00 | 36 | 1006.9 |
| 20260508104540 | 17 | 342 | 1.6 | 3.2 | 0.00 | 0.00 | 0.00 | 38 | 1007.0 |
| 20260508103040 | 17 | 349 | 1.6 | 3.2 | 0.00 | 0.00 | 0.00 | 39 | 1006.9 |
| 20260508101549 | 16 | 337 | 1.6 | 3.2 | 0.00 | 0.00 | 0.00 | 42 | 1007.0 |
| 20260508100039 | 16 | 122 | 0.0 | 1.6 | 0.00 | 0.00 | 0.00 | 44 | 1006.9 |
| 20260508094549 | 16 | 122 | 0.0 | 0.0 | 0.00 | 0.00 | 0.00 | 44 | 1006.9 |
| 20260508093049 | 16 | 122 | 0.0 | 0.0 | 0.00 | 0.00 | 0.00 | 43 | 1006.9 |
| 20260508091532 | 17 | 122 | 0.0 | 0.0 | 0.00 | 0.00 | 0.00 | 42 | 1007.0 |
| 20260508090037 | 17 | 122 | 0.0 | 0.0 | 0.00 | 0.00 | 0.00 | 36 | 1007.0 |
| 20260508084526 | 18 | 122 | 0.0 | 1.6 | 0.00 | 0.00 | 0.00 | 32 | 1007.1 |
| 20260508083027 | 18 | 130 | 0.0 | 0.0 | 0.00 | 0.00 | 0.00 | 33 | 1007.3 |
| 20260508081523 | 18 | 130 | 0.0 | 1.6 | 0.00 | 0.00 | 0.00 | 33 | 1007.4 |
| 20260508080033 | 18 | 132 | 0.0 | 0.0 | 0.00 | 0.00 | 0.00 | 35 | 1007.5 |
| 20260508074523 | 18 | 132 | 0.0 | 1.6 | 0.00 | 0.00 | 0.00 | 32 | 1007.5 |
| 20260508073020 | 18 | 132 | 0.0 | 1.6 | 0.00 | 0.00 | 0.00 | 33 | 1007.8 |
| 20260508071516 | 18 | 132 | 0.0 | 0.0 | 0.00 | 0.00 | 0.00 | 35 | 1007.7 |
| 20260508070013 | 18 | 135 | 0.0 | 1.6 | 0.00 | 0.00 | 0.00 | 39 | 1007.8 |
| 20260508064513 | 20 | 257 | 0.0 | 3.2 | 0.00 | 0.00 | 0.00 | 34 | 1007.8 |
| 20260508063012 | 20 | 329 | 0.0 | 1.6 | 0.00 | 0.00 | 0.00 | 32 | 1008.0 |
| 20260508061512 | 20 | 329 | 0.0 | 3.2 | 0.00 | 0.00 | 0.00 | 32 | 1008.0 |
| 20260508060011 | 19 | 62 | 0.0 | 1.6 | 0.00 | 0.00 | 0.00 | 36 | 1008.0 |
| 20260508054511 | 19 | 76 | 0.0 | 1.6 | 0.00 | 0.00 | 0.00 | 35 | 1008.1 |
| 20260508053011 | 20 | 76 | 0.0 | 1.6 | 0.00 | 0.00 | 0.00 | 36 | 1008.0 |
| 20260508051509 | 20 | 93 | 0.0 | 1.6 | 0.00 | 0.00 | 0.00 | 32 | 1008.0 |
| 20260508050009 | 21 | 93 | 0.0 | 1.6 | 0.00 | 0.00 | 0.00 | 31 | 1008.0 |
| 20260508044513 | 21 | 93 | 0.0 | 0.0 | 0.00 | 0.00 | 0.00 | 28 | 1007.9 |
| 20260508043008 | 22 | 93 | 0.0 | 4.8 | 0.00 | 0.00 | 0.00 | 27 | 1007.8 |
| 20260508041508 | 22 | 94 | 0.0 | 4.8 | 0.00 | 0.00 | 0.00 | 25 | 1007.5 |
| 20260508040009 | 22 | 105 | 0.0 | 3.2 | 0.00 | 0.00 | 0.00 | 25 | 1007.5 |
| 20260508034506 | 22 | 290 | 0.0 | 0.0 | 0.00 | 0.00 | 0.00 | 27 | 1007.0 |
| 20260508033015 | 23 | 287 | 0.0 | 0.0 | 0.00 | 0.00 | 0.00 | 25 | 1006.7 |
| 20260508031505 | 23 | 287 | 0.0 | 6.4 | 0.00 | 0.00 | 0.00 | 24 | 1006.5 |
| 20260508030005 | 24 | 259 | 0.0 | 8.0 | 0.00 | 0.00 | 0.00 | 22 | 1006.4 |
| 20260508024504 | 25 | 323 | 6.4 | 19.3 | 0.00 | 0.00 | 0.00 | 20 | 1005.8 |
| 20260508023003 | 26 | 333 | 6.4 | 16.1 | 0.00 | 0.00 | 0.00 | 18 | 1005.3 |
| 20260508021503 | 27 | 347 | 8.0 | 17.7 | 0.00 | 0.00 | 0.00 | 14 | 1004.7 |
| 20260508020004 | 28 | 313 | 8.0 | 0.0 | 0.00 | 0.00 | 0.00 | 14 | 1004.3 |
| 20260508014505 | 28 | 323 | 4.8 | 20.9 | 0.00 | 0.00 | 0.00 | 13 | 1004.0 |
| 20260508013110 | 30 | 308 | 11.3 | 25.7 | 0.00 | 0.00 | 0.00 | 13 | 1003.9 |
| 20260508011603 | 30 | 325 | 1.6 | 6.4 | 0.00 | 0.00 | 0.00 | 13 | 1003.9 |
| 20260508010057 | 31 | 328 | 3.2 | 8.0 | 0.00 | 0.00 | 0.00 | 12 | 1003.8 |
| 20260508004600 | 30 | 305 | 3.2 | 9.7 | 0.00 | 0.00 | 0.00 | 12 | 1003.7 |
| 20260508003106 | 31 | 289 | 4.8 | 11.3 | 0.00 | 0.00 | 0.00 | 12 | 1003.6 |
| 20260508001555 | 30 | 328 | 6.4 | 14.5 | 0.00 | 0.00 | 0.00 | 12 | 1003.5 |
| 20260508000053 | 31 | 322 | 1.6 | 4.8 | 0.00 | 0.00 | 0.00 | 12 | 1003.6 |
| 20260507234553 | 30 | 282 | 1.6 | 4.8 | 0.00 | 0.00 | 0.00 | 12 | 1003.7 |
| 20260507233052 | 28 | 319 | 3.2 | 8.0 | 0.00 | 0.00 | 0.00 | 14 | 1003.8 |
| 20260507231556 | 30 | 309 | 3.2 | 9.7 | 0.00 | 0.00 | 0.00 | 13 | 1003.9 |
| 20260507230048 | 31 | 274 | 3.2 | 12.9 | 0.00 | 0.00 | 0.00 | 12 | 1003.9 |
| 20260507224558 | 31 | 103 | 0.0 | 16.1 | 0.00 | 0.00 | 0.00 | 12 | 1004.1 |
| 20260507223048 | 31 | 226 | 6.4 | 16.1 | 0.00 | 0.00 | 0.00 | 11 | 1004.1 |
| 20260507221544 | 31 | 279 | 1.6 | 12.9 | 0.00 | 0.00 | 0.00 | 13 | 1004.3 |
| 20260507220041 | 31 | 137 | 3.2 | 14.5 | 0.00 | 0.00 | 0.00 | 11 | 1004.4 |
| 20260507214541 | 30 | 260 | 3.2 | 12.9 | 0.00 | 0.00 | 0.00 | 13 | 1004.7 |
| 20260507213037 | 30 | 105 | 6.4 | 12.9 | 0.00 | 0.00 | 0.00 | 11 | 1005.0 |
| 20260507211534 | 31 | 70 | 6.4 | 12.9 | 0.00 | 0.00 | 0.00 | 12 | 1005.1 |
| 20260507210058 | 30 | 13 | 1.6 | 9.7 | 0.00 | 0.00 | 0.00 | 13 | 1005.5 |
| 20260507204528 | 29 | 281 | 0.0 | 4.8 | 0.00 | 0.00 | 0.00 | 13 | 1005.7 |
| 20260507203028 | 29 | 131 | 4.8 | 16.1 | 0.00 | 0.00 | 0.00 | 12 | 1006.0 |
| 20260507201532 | 30 | 290 | 1.6 | 8.0 | 0.00 | 0.00 | 0.00 | 13 | 1006.1 |
| 20260507200038 | 30 | 279 | 0.0 | 8.0 | 0.00 | 0.00 | 0.00 | 13 | 1006.2 |
| 20260507194521 | 29 | 261 | 0.0 | 8.0 | 0.00 | 0.00 | 0.00 | 13 | 1006.3 |
| 20260507193026 | 29 | 314 | 0.0 | 17.7 | 0.00 | 0.00 | 0.00 | 14 | 1006.6 |
| 20260507191524 | 28 | 75 | 6.4 | 11.3 | 0.00 | 0.00 | 0.00 | 13 | 1006.7 |